sensor_id;sensor_type;location;lat;lon;timestamp;temperature;humidity
8095;DHT22;4090;49.270;8.696;2023-05-17T00:02:34;15.10;93.20
8095;DHT22;4090;49.270;8.696;2023-05-17T00:05:16;15.20;93.00
8095;DHT22;4090;49.270;8.696;2023-05-17T00:07:57;15.10;93.10
8095;DHT22;4090;49.270;8.696;2023-05-17T00:10:39;15.10;93.30
8095;DHT22;4090;49.270;8.696;2023-05-17T00:13:22;15.00;93.30
8095;DHT22;4090;49.270;8.696;2023-05-17T00:16:04;15.00;93.70
8095;DHT22;4090;49.270;8.696;2023-05-17T00:18:46;15.00;93.70
8095;DHT22;4090;49.270;8.696;2023-05-17T00:21:28;15.00;93.80
8095;DHT22;4090;49.270;8.696;2023-05-17T00:24:10;14.90;93.30
8095;DHT22;4090;49.270;8.696;2023-05-17T00:26:52;14.90;93.40
8095;DHT22;4090;49.270;8.696;2023-05-17T00:29:35;14.90;93.50
8095;DHT22;4090;49.270;8.696;2023-05-17T00:32:17;14.80;93.60
8095;DHT22;4090;49.270;8.696;2023-05-17T00:34:59;14.80;93.60
8095;DHT22;4090;49.270;8.696;2023-05-17T00:37:40;14.70;93.80
8095;DHT22;4090;49.270;8.696;2023-05-17T00:40:27;14.70;93.90
8095;DHT22;4090;49.270;8.696;2023-05-17T00:43:09;14.60;94.00
8095;DHT22;4090;49.270;8.696;2023-05-17T00:45:52;14.60;93.70
8095;DHT22;4090;49.270;8.696;2023-05-17T00:48:33;14.50;93.80
8095;DHT22;4090;49.270;8.696;2023-05-17T00:51:15;14.60;94.00
8095;DHT22;4090;49.270;8.696;2023-05-17T00:53:59;14.50;94.10
8095;DHT22;4090;49.270;8.696;2023-05-17T00:56:41;14.60;94.20
8095;DHT22;4090;49.270;8.696;2023-05-17T00:59:23;14.40;94.40
8095;DHT22;4090;49.270;8.696;2023-05-17T01:02:06;14.40;94.40
8095;DHT22;4090;49.270;8.696;2023-05-17T01:04:48;14.30;94.40
8095;DHT22;4090;49.270;8.696;2023-05-17T01:07:30;14.30;94.50
8095;DHT22;4090;49.270;8.696;2023-05-17T01:10:12;14.30;94.50
8095;DHT22;4090;49.270;8.696;2023-05-17T01:12:54;14.20;94.50
8095;DHT22;4090;49.270;8.696;2023-05-17T01:15:40;14.20;95.30
8095;DHT22;4090;49.270;8.696;2023-05-17T01:18:26;14.20;94.90
8095;DHT22;4090;49.270;8.696;2023-05-17T01:21:11;14.20;97.30
8095;DHT22;4090;49.270;8.696;2023-05-17T01:24:04;14.10;94.90
8095;DHT22;4090;49.270;8.696;2023-05-17T01:26:55;14.10;94.90
8095;DHT22;4090;49.270;8.696;2023-05-17T01:29:39;14.00;95.00
8095;DHT22;4090;49.270;8.696;2023-05-17T01:32:22;14.00;95.30
8095;DHT22;4090;49.270;8.696;2023-05-17T01:35:06;14.00;95.20
8095;DHT22;4090;49.270;8.696;2023-05-17T01:37:49;14.00;95.00
8095;DHT22;4090;49.270;8.696;2023-05-17T01:40:31;14.00;94.80
8095;DHT22;4090;49.270;8.696;2023-05-17T01:43:16;13.90;95.00
8095;DHT22;4090;49.270;8.696;2023-05-17T01:46:04;13.90;95.10
8095;DHT22;4090;49.270;8.696;2023-05-17T01:48:48;13.90;95.30
8095;DHT22;4090;49.270;8.696;2023-05-17T01:51:35;13.80;95.40
8095;DHT22;4090;49.270;8.696;2023-05-17T01:54:19;13.80;95.40
8095;DHT22;4090;49.270;8.696;2023-05-17T01:57:03;13.80;95.30
8095;DHT22;4090;49.270;8.696;2023-05-17T01:59:47;13.70;95.10
8095;DHT22;4090;49.270;8.696;2023-05-17T02:02:30;13.70;95.10
8095;DHT22;4090;49.270;8.696;2023-05-17T02:05:12;13.70;95.40
8095;DHT22;4090;49.270;8.696;2023-05-17T02:07:54;13.60;95.90
8095;DHT22;4090;49.270;8.696;2023-05-17T02:10:36;13.60;97.30
8095;DHT22;4090;49.270;8.696;2023-05-17T02:13:17;13.50;98.30
8095;DHT22;4090;49.270;8.696;2023-05-17T02:16:01;13.50;99.90
8095;DHT22;4090;49.270;8.696;2023-05-17T02:18:43;13.50;97.90
8095;DHT22;4090;49.270;8.696;2023-05-17T02:21:26;13.40;99.20
8095;DHT22;4090;49.270;8.696;2023-05-17T02:24:08;13.40;97.10
8095;DHT22;4090;49.270;8.696;2023-05-17T02:26:50;13.40;96.50
8095;DHT22;4090;49.270;8.696;2023-05-17T02:29:31;13.40;96.60
8095;DHT22;4090;49.270;8.696;2023-05-17T02:32:14;13.40;96.70
8095;DHT22;4090;49.270;8.696;2023-05-17T02:34:58;13.40;96.80
8095;DHT22;4090;49.270;8.696;2023-05-17T02:37:40;13.40;97.00
8095;DHT22;4090;49.270;8.696;2023-05-17T02:40:22;13.40;97.10
8095;DHT22;4090;49.270;8.696;2023-05-17T02:43:03;13.40;97.00
8095;DHT22;4090;49.270;8.696;2023-05-17T02:45:50;13.40;97.00
8095;DHT22;4090;49.270;8.696;2023-05-17T02:48:33;13.40;97.60
8095;DHT22;4090;49.270;8.696;2023-05-17T02:51:15;13.40;97.60
8095;DHT22;4090;49.270;8.696;2023-05-17T02:53:57;13.30;97.60
8095;DHT22;4090;49.270;8.696;2023-05-17T02:56:39;13.30;97.50
8095;DHT22;4090;49.270;8.696;2023-05-17T02:59:21;13.30;97.60
8095;DHT22;4090;49.270;8.696;2023-05-17T03:02:03;13.30;97.70
8095;DHT22;4090;49.270;8.696;2023-05-17T03:04:47;13.30;97.60
8095;DHT22;4090;49.270;8.696;2023-05-17T03:07:29;13.30;99.90
8095;DHT22;4090;49.270;8.696;2023-05-17T03:10:14;13.30;99.90
8095;DHT22;4090;49.270;8.696;2023-05-17T03:12:58;13.30;99.90
8095;DHT22;4090;49.270;8.696;2023-05-17T03:15:44;13.30;99.90
8095;DHT22;4090;49.270;8.696;2023-05-17T03:18:27;13.30;99.90
8095;DHT22;4090;49.270;8.696;2023-05-17T03:21:10;13.20;99.90
8095;DHT22;4090;49.270;8.696;2023-05-17T03:23:53;13.20;98.00
8095;DHT22;4090;49.270;8.696;2023-05-17T03:26:34;13.10;98.10
8095;DHT22;4090;49.270;8.696;2023-05-17T03:29:16;13.20;98.10
8095;DHT22;4090;49.270;8.696;2023-05-17T03:31:59;13.20;98.30
8095;DHT22;4090;49.270;8.696;2023-05-17T03:34:41;13.20;99.90
8095;DHT22;4090;49.270;8.696;2023-05-17T03:37:24;13.20;98.40
8095;DHT22;4090;49.270;8.696;2023-05-17T03:40:06;13.20;98.30
8095;DHT22;4090;49.270;8.696;2023-05-17T03:42:48;13.20;98.40
8095;DHT22;4090;49.270;8.696;2023-05-17T03:45:31;13.10;98.20
8095;DHT22;4090;49.270;8.696;2023-05-17T03:48:12;13.10;98.30
8095;DHT22;4090;49.270;8.696;2023-05-17T03:50:54;13.10;98.40
8095;DHT22;4090;49.270;8.696;2023-05-17T03:53:38;13.10;98.40
8095;DHT22;4090;49.270;8.696;2023-05-17T03:56:23;13.10;98.40
8095;DHT22;4090;49.270;8.696;2023-05-17T03:59:05;13.10;98.60
8095;DHT22;4090;49.270;8.696;2023-05-17T04:01:47;13.10;98.60
8095;DHT22;4090;49.270;8.696;2023-05-17T04:04:29;13.00;98.60
8095;DHT22;4090;49.270;8.696;2023-05-17T04:07:10;13.00;98.60
8095;DHT22;4090;49.270;8.696;2023-05-17T04:09:55;13.00;98.80
8095;DHT22;4090;49.270;8.696;2023-05-17T04:12:38;13.00;98.90
8095;DHT22;4090;49.270;8.696;2023-05-17T04:15:20;12.90;99.00
8095;DHT22;4090;49.270;8.696;2023-05-17T04:18:03;13.10;99.10
8095;DHT22;4090;49.270;8.696;2023-05-17T04:20:45;12.90;99.30
8095;DHT22;4090;49.270;8.696;2023-05-17T04:23:27;12.90;99.30
8095;DHT22;4090;49.270;8.696;2023-05-17T04:26:10;12.90;99.50
8095;DHT22;4090;49.270;8.696;2023-05-17T04:28:53;12.90;99.40
8095;DHT22;4090;49.270;8.696;2023-05-17T04:31:36;12.80;99.50
8095;DHT22;4090;49.270;8.696;2023-05-17T04:34:18;12.80;99.50
8095;DHT22;4090;49.270;8.696;2023-05-17T04:37:01;12.80;99.60
8095;DHT22;4090;49.270;8.696;2023-05-17T04:39:43;12.80;99.60
8095;DHT22;4090;49.270;8.696;2023-05-17T04:42:27;12.80;99.60
8095;DHT22;4090;49.270;8.696;2023-05-17T04:45:11;12.80;99.60
8095;DHT22;4090;49.270;8.696;2023-05-17T04:47:53;12.80;99.80
8095;DHT22;4090;49.270;8.696;2023-05-17T04:50:35;12.80;99.90
8095;DHT22;4090;49.270;8.696;2023-05-17T04:53:18;12.80;99.90
8095;DHT22;4090;49.270;8.696;2023-05-17T04:56:00;12.80;99.90
8095;DHT22;4090;49.270;8.696;2023-05-17T04:58:45;12.80;99.90
8095;DHT22;4090;49.270;8.696;2023-05-17T05:01:27;12.80;99.90
8095;DHT22;4090;49.270;8.696;2023-05-17T05:04:11;12.90;99.90
8095;DHT22;4090;49.270;8.696;2023-05-17T05:06:56;12.90;99.90
8095;DHT22;4090;49.270;8.696;2023-05-17T05:09:38;12.90;99.90
8095;DHT22;4090;49.270;8.696;2023-05-17T05:12:20;12.90;99.90
8095;DHT22;4090;49.270;8.696;2023-05-17T05:15:04;12.90;99.90
8095;DHT22;4090;49.270;8.696;2023-05-17T05:17:46;12.90;99.90
8095;DHT22;4090;49.270;8.696;2023-05-17T05:20:28;12.90;99.90
8095;DHT22;4090;49.270;8.696;2023-05-17T05:23:11;13.00;99.90
8095;DHT22;4090;49.270;8.696;2023-05-17T05:25:52;13.00;99.90
8095;DHT22;4090;49.270;8.696;2023-05-17T05:28:35;13.00;99.90
8095;DHT22;4090;49.270;8.696;2023-05-17T05:31:18;13.00;99.90
8095;DHT22;4090;49.270;8.696;2023-05-17T05:34:05;13.00;99.90
8095;DHT22;4090;49.270;8.696;2023-05-17T05:36:47;13.10;99.90
8095;DHT22;4090;49.270;8.696;2023-05-17T05:39:29;13.10;99.90
8095;DHT22;4090;49.270;8.696;2023-05-17T05:42:11;13.20;99.90
8095;DHT22;4090;49.270;8.696;2023-05-17T05:44:53;13.10;99.90
8095;DHT22;4090;49.270;8.696;2023-05-17T05:47:37;13.10;99.90
8095;DHT22;4090;49.270;8.696;2023-05-17T05:50:19;13.20;99.90
8095;DHT22;4090;49.270;8.696;2023-05-17T05:53:02;13.20;99.90
8095;DHT22;4090;49.270;8.696;2023-05-17T05:55:44;13.20;99.90
8095;DHT22;4090;49.270;8.696;2023-05-17T05:58:26;13.20;99.90
8095;DHT22;4090;49.270;8.696;2023-05-17T06:01:08;13.20;99.90
8095;DHT22;4090;49.270;8.696;2023-05-17T06:03:51;13.20;99.90
8095;DHT22;4090;49.270;8.696;2023-05-17T06:06:33;13.30;99.90
8095;DHT22;4090;49.270;8.696;2023-05-17T06:09:15;13.30;99.90
8095;DHT22;4090;49.270;8.696;2023-05-17T06:11:57;13.30;99.90
8095;DHT22;4090;49.270;8.696;2023-05-17T06:14:40;13.40;99.90
8095;DHT22;4090;49.270;8.696;2023-05-17T06:17:22;13.40;99.90
8095;DHT22;4090;49.270;8.696;2023-05-17T06:20:06;13.40;99.90
8095;DHT22;4090;49.270;8.696;2023-05-17T06:22:48;13.40;99.90
8095;DHT22;4090;49.270;8.696;2023-05-17T06:25:30;13.40;99.90
8095;DHT22;4090;49.270;8.696;2023-05-17T06:28:11;13.40;99.90
8095;DHT22;4090;49.270;8.696;2023-05-17T06:30:53;13.60;99.90
8095;DHT22;4090;49.270;8.696;2023-05-17T06:33:35;13.50;99.90
8095;DHT22;4090;49.270;8.696;2023-05-17T06:36:18;13.50;99.90
8095;DHT22;4090;49.270;8.696;2023-05-17T06:39:00;13.50;99.90
8095;DHT22;4090;49.270;8.696;2023-05-17T06:41:42;13.50;99.90
8095;DHT22;4090;49.270;8.696;2023-05-17T06:44:24;13.40;99.90
8095;DHT22;4090;49.270;8.696;2023-05-17T06:47:05;13.40;99.90
8095;DHT22;4090;49.270;8.696;2023-05-17T06:49:47;13.40;99.90
8095;DHT22;4090;49.270;8.696;2023-05-17T06:52:30;13.40;99.90
8095;DHT22;4090;49.270;8.696;2023-05-17T06:55:12;13.40;99.90
8095;DHT22;4090;49.270;8.696;2023-05-17T06:57:54;13.40;99.90
8095;DHT22;4090;49.270;8.696;2023-05-17T07:00:36;13.40;99.90
8095;DHT22;4090;49.270;8.696;2023-05-17T07:03:18;13.40;99.90
8095;DHT22;4090;49.270;8.696;2023-05-17T07:06:00;13.40;99.90
8095;DHT22;4090;49.270;8.696;2023-05-17T07:08:43;13.50;99.90
8095;DHT22;4090;49.270;8.696;2023-05-17T07:11:25;13.50;99.90
8095;DHT22;4090;49.270;8.696;2023-05-17T07:14:07;13.50;99.90
8095;DHT22;4090;49.270;8.696;2023-05-17T07:16:49;13.50;99.90
8095;DHT22;4090;49.270;8.696;2023-05-17T07:19:31;13.60;99.90
8095;DHT22;4090;49.270;8.696;2023-05-17T07:22:12;13.60;99.90
8095;DHT22;4090;49.270;8.696;2023-05-17T07:24:56;13.70;99.90
8095;DHT22;4090;49.270;8.696;2023-05-17T07:27:38;13.70;99.90
8095;DHT22;4090;49.270;8.696;2023-05-17T07:30:20;13.80;99.90
8095;DHT22;4090;49.270;8.696;2023-05-17T07:33:02;13.80;99.80
8095;DHT22;4090;49.270;8.696;2023-05-17T07:35:44;13.90;99.10
8095;DHT22;4090;49.270;8.696;2023-05-17T07:38:25;13.90;99.10
8095;DHT22;4090;49.270;8.696;2023-05-17T07:41:09;14.00;99.40
8095;DHT22;4090;49.270;8.696;2023-05-17T07:43:53;14.10;98.90
8095;DHT22;4090;49.270;8.696;2023-05-17T07:46:35;14.10;99.10
8095;DHT22;4090;49.270;8.696;2023-05-17T07:49:16;14.10;98.80
8095;DHT22;4090;49.270;8.696;2023-05-17T07:51:58;14.20;98.90
8095;DHT22;4090;49.270;8.696;2023-05-17T07:54:41;14.20;98.80
8095;DHT22;4090;49.270;8.696;2023-05-17T07:57:24;14.20;98.40
8095;DHT22;4090;49.270;8.696;2023-05-17T08:00:07;14.30;99.60
8095;DHT22;4090;49.270;8.696;2023-05-17T08:02:54;14.40;99.90
8095;DHT22;4090;49.270;8.696;2023-05-17T08:05:36;14.40;99.90
8095;DHT22;4090;49.270;8.696;2023-05-17T08:08:18;14.50;99.90
8095;DHT22;4090;49.270;8.696;2023-05-17T08:11:00;14.50;99.90
8095;DHT22;4090;49.270;8.696;2023-05-17T08:13:43;14.60;99.90
8095;DHT22;4090;49.270;8.696;2023-05-17T08:16:25;14.60;99.70
8095;DHT22;4090;49.270;8.696;2023-05-17T08:19:10;14.60;99.90
8095;DHT22;4090;49.270;8.696;2023-05-17T08:21:53;14.70;99.90
8095;DHT22;4090;49.270;8.696;2023-05-17T08:24:35;14.80;99.90
8095;DHT22;4090;49.270;8.696;2023-05-17T08:27:17;14.80;99.90
8095;DHT22;4090;49.270;8.696;2023-05-17T08:30:00;14.90;99.90
8095;DHT22;4090;49.270;8.696;2023-05-17T08:32:42;14.90;99.30
8095;DHT22;4090;49.270;8.696;2023-05-17T08:35:25;15.00;99.60
8095;DHT22;4090;49.270;8.696;2023-05-17T08:38:07;15.10;99.90
8095;DHT22;4090;49.270;8.696;2023-05-17T08:40:51;15.10;99.40
8095;DHT22;4090;49.270;8.696;2023-05-17T08:43:33;15.20;99.90
8095;DHT22;4090;49.270;8.696;2023-05-17T08:46:17;15.30;99.50
8095;DHT22;4090;49.270;8.696;2023-05-17T08:49:01;15.20;98.70
8095;DHT22;4090;49.270;8.696;2023-05-17T08:51:43;15.30;99.10
8095;DHT22;4090;49.270;8.696;2023-05-17T08:54:26;15.40;99.10
8095;DHT22;4090;49.270;8.696;2023-05-17T08:57:08;15.40;99.00
8095;DHT22;4090;49.270;8.696;2023-05-17T08:59:51;15.40;99.00
8095;DHT22;4090;49.270;8.696;2023-05-17T09:02:34;15.40;98.60
8095;DHT22;4090;49.270;8.696;2023-05-17T09:05:16;15.50;98.30
8095;DHT22;4090;49.270;8.696;2023-05-17T09:07:58;15.50;97.70
8095;DHT22;4090;49.270;8.696;2023-05-17T09:10:40;15.60;97.70
8095;DHT22;4090;49.270;8.696;2023-05-17T09:13:22;15.60;97.90
8095;DHT22;4090;49.270;8.696;2023-05-17T09:16:11;15.60;98.10
8095;DHT22;4090;49.270;8.696;2023-05-17T09:18:54;15.70;97.40
8095;DHT22;4090;49.270;8.696;2023-05-17T09:21:36;15.70;96.90
8095;DHT22;4090;49.270;8.696;2023-05-17T09:24:18;15.80;97.00
8095;DHT22;4090;49.270;8.696;2023-05-17T09:27:07;15.80;96.70
8095;DHT22;4090;49.270;8.696;2023-05-17T09:29:49;15.90;96.50
8095;DHT22;4090;49.270;8.696;2023-05-17T09:32:31;15.90;95.50
8095;DHT22;4090;49.270;8.696;2023-05-17T09:35:14;15.90;96.10
8095;DHT22;4090;49.270;8.696;2023-05-17T09:37:57;16.00;96.00
8095;DHT22;4090;49.270;8.696;2023-05-17T09:40:46;16.00;95.90
8095;DHT22;4090;49.270;8.696;2023-05-17T09:43:28;16.00;95.30
8095;DHT22;4090;49.270;8.696;2023-05-17T09:46:11;16.00;95.70
8095;DHT22;4090;49.270;8.696;2023-05-17T09:48:54;16.10;95.40
8095;DHT22;4090;49.270;8.696;2023-05-17T09:51:39;16.10;94.70
8095;DHT22;4090;49.270;8.696;2023-05-17T09:54:21;16.10;95.30
8095;DHT22;4090;49.270;8.696;2023-05-17T09:57:03;16.10;95.60
8095;DHT22;4090;49.270;8.696;2023-05-17T09:59:49;16.20;95.70
8095;DHT22;4090;49.270;8.696;2023-05-17T10:02:32;16.20;95.10
8095;DHT22;4090;49.270;8.696;2023-05-17T10:05:14;16.20;94.50
8095;DHT22;4090;49.270;8.696;2023-05-17T10:07:58;16.30;94.40
8095;DHT22;4090;49.270;8.696;2023-05-17T10:10:40;16.30;93.60
8095;DHT22;4090;49.270;8.696;2023-05-17T10:13:23;16.30;93.10
8095;DHT22;4090;49.270;8.696;2023-05-17T10:16:07;16.40;92.90
8095;DHT22;4090;49.270;8.696;2023-05-17T10:18:49;16.40;92.80
8095;DHT22;4090;49.270;8.696;2023-05-17T10:21:31;16.50;92.60
8095;DHT22;4090;49.270;8.696;2023-05-17T10:24:14;16.50;92.50
8095;DHT22;4090;49.270;8.696;2023-05-17T10:26:56;16.60;92.80
8095;DHT22;4090;49.270;8.696;2023-05-17T10:29:38;16.60;92.70
8095;DHT22;4090;49.270;8.696;2023-05-17T10:32:20;16.70;93.20
8095;DHT22;4090;49.270;8.696;2023-05-17T10:35:06;16.70;92.20
8095;DHT22;4090;49.270;8.696;2023-05-17T10:37:49;16.80;92.60
8095;DHT22;4090;49.270;8.696;2023-05-17T10:40:32;16.80;91.40
8095;DHT22;4090;49.270;8.696;2023-05-17T10:43:16;16.90;92.20
8095;DHT22;4090;49.270;8.696;2023-05-17T10:45:58;16.90;92.30
8095;DHT22;4090;49.270;8.696;2023-05-17T10:48:41;16.90;91.90
8095;DHT22;4090;49.270;8.696;2023-05-17T10:51:23;16.90;91.80
8095;DHT22;4090;49.270;8.696;2023-05-17T10:54:07;16.90;91.60
8095;DHT22;4090;49.270;8.696;2023-05-17T10:56:51;17.00;91.10
8095;DHT22;4090;49.270;8.696;2023-05-17T10:59:34;17.00;91.10
8095;DHT22;4090;49.270;8.696;2023-05-17T11:02:22;17.00;91.50
8095;DHT22;4090;49.270;8.696;2023-05-17T11:05:04;17.10;91.20
8095;DHT22;4090;49.270;8.696;2023-05-17T11:07:46;17.00;90.80
8095;DHT22;4090;49.270;8.696;2023-05-17T11:10:29;17.10;91.10
8095;DHT22;4090;49.270;8.696;2023-05-17T11:13:22;17.10;91.40
8095;DHT22;4090;49.270;8.696;2023-05-17T11:16:06;17.10;91.00
8095;DHT22;4090;49.270;8.696;2023-05-17T11:18:48;17.10;91.00
8095;DHT22;4090;49.270;8.696;2023-05-17T11:21:30;17.10;91.70
8095;DHT22;4090;49.270;8.696;2023-05-17T11:24:13;17.10;91.70
8095;DHT22;4090;49.270;8.696;2023-05-17T11:26:56;17.10;91.40
8095;DHT22;4090;49.270;8.696;2023-05-17T11:29:40;17.10;91.70
8095;DHT22;4090;49.270;8.696;2023-05-17T11:32:26;17.10;91.80
8095;DHT22;4090;49.270;8.696;2023-05-17T11:35:08;17.10;91.40
8095;DHT22;4090;49.270;8.696;2023-05-17T11:37:52;17.20;91.00
8095;DHT22;4090;49.270;8.696;2023-05-17T11:40:34;17.20;91.70
8095;DHT22;4090;49.270;8.696;2023-05-17T11:43:17;17.20;91.70
8095;DHT22;4090;49.270;8.696;2023-05-17T11:46:00;17.20;92.00
8095;DHT22;4090;49.270;8.696;2023-05-17T11:48:43;17.40;91.60
8095;DHT22;4090;49.270;8.696;2023-05-17T11:51:25;17.20;91.10
8095;DHT22;4090;49.270;8.696;2023-05-17T11:54:08;17.30;90.10
8095;DHT22;4090;49.270;8.696;2023-05-17T11:56:50;17.30;88.80
8095;DHT22;4090;49.270;8.696;2023-05-17T11:59:35;17.30;90.40
8095;DHT22;4090;49.270;8.696;2023-05-17T12:02:26;17.30;90.60
8095;DHT22;4090;49.270;8.696;2023-05-17T12:05:08;17.30;91.50
8095;DHT22;4090;49.270;8.696;2023-05-17T12:07:50;17.40;91.20
8095;DHT22;4090;49.270;8.696;2023-05-17T12:10:32;17.40;90.70
8095;DHT22;4090;49.270;8.696;2023-05-17T12:13:14;17.40;91.50
8095;DHT22;4090;49.270;8.696;2023-05-17T12:15:57;17.50;90.60
8095;DHT22;4090;49.270;8.696;2023-05-17T12:18:41;17.40;90.40
8095;DHT22;4090;49.270;8.696;2023-05-17T12:21:24;17.40;88.80
8095;DHT22;4090;49.270;8.696;2023-05-17T12:24:06;17.40;90.60
8095;DHT22;4090;49.270;8.696;2023-05-17T12:26:48;17.50;90.30
8095;DHT22;4090;49.270;8.696;2023-05-17T12:29:29;17.50;90.80
8095;DHT22;4090;49.270;8.696;2023-05-17T12:32:11;17.50;90.70
8095;DHT22;4090;49.270;8.696;2023-05-17T12:34:54;17.50;90.20
8095;DHT22;4090;49.270;8.696;2023-05-17T12:37:36;17.50;88.80
8095;DHT22;4090;49.270;8.696;2023-05-17T12:40:18;17.60;87.60
8095;DHT22;4090;49.270;8.696;2023-05-17T12:43:00;17.60;87.80
8095;DHT22;4090;49.270;8.696;2023-05-17T12:45:42;17.70;90.80
8095;DHT22;4090;49.270;8.696;2023-05-17T12:48:23;17.80;89.20
8095;DHT22;4090;49.270;8.696;2023-05-17T12:51:08;17.90;87.40
8095;DHT22;4090;49.270;8.696;2023-05-17T12:53:51;18.00;88.50
8095;DHT22;4090;49.270;8.696;2023-05-17T12:56:33;18.00;89.90
8095;DHT22;4090;49.270;8.696;2023-05-17T12:59:15;18.00;90.90
8095;DHT22;4090;49.270;8.696;2023-05-17T13:01:57;18.10;88.70
8095;DHT22;4090;49.270;8.696;2023-05-17T13:04:40;18.10;84.90
8095;DHT22;4090;49.270;8.696;2023-05-17T13:07:24;18.20;85.50
8095;DHT22;4090;49.270;8.696;2023-05-17T13:10:17;18.20;83.60
8095;DHT22;4090;49.270;8.696;2023-05-17T13:12:59;18.20;84.50
8095;DHT22;4090;49.270;8.696;2023-05-17T13:15:44;18.20;87.30
8095;DHT22;4090;49.270;8.696;2023-05-17T13:18:26;18.20;87.70
8095;DHT22;4090;49.270;8.696;2023-05-17T13:21:08;18.20;89.40
8095;DHT22;4090;49.270;8.696;2023-05-17T13:23:51;18.30;87.90
8095;DHT22;4090;49.270;8.696;2023-05-17T13:26:33;18.40;82.40
8095;DHT22;4090;49.270;8.696;2023-05-17T13:29:14;18.40;80.90
8095;DHT22;4090;49.270;8.696;2023-05-17T13:31:56;18.40;85.10
8095;DHT22;4090;49.270;8.696;2023-05-17T13:34:38;18.40;84.80
8095;DHT22;4090;49.270;8.696;2023-05-17T13:37:20;18.50;83.80
8095;DHT22;4090;49.270;8.696;2023-05-17T13:40:03;18.60;81.00
8095;DHT22;4090;49.270;8.696;2023-05-17T13:42:46;18.60;80.90
8095;DHT22;4090;49.270;8.696;2023-05-17T13:45:28;18.80;81.60
8095;DHT22;4090;49.270;8.696;2023-05-17T13:48:10;18.80;81.30
8095;DHT22;4090;49.270;8.696;2023-05-17T13:50:52;18.90;78.00
8095;DHT22;4090;49.270;8.696;2023-05-17T13:53:33;18.90;77.70
8095;DHT22;4090;49.270;8.696;2023-05-17T13:56:19;19.00;77.20
8095;DHT22;4090;49.270;8.696;2023-05-17T13:59:01;19.00;77.50
8095;DHT22;4090;49.270;8.696;2023-05-17T14:01:44;19.10;80.30
8095;DHT22;4090;49.270;8.696;2023-05-17T14:04:26;19.10;81.40
8095;DHT22;4090;49.270;8.696;2023-05-17T14:07:07;19.20;83.70
8095;DHT22;4090;49.270;8.696;2023-05-17T14:09:49;19.30;85.10
8095;DHT22;4090;49.270;8.696;2023-05-17T14:12:32;19.30;82.90
8095;DHT22;4090;49.270;8.696;2023-05-17T14:15:14;19.30;84.80
8095;DHT22;4090;49.270;8.696;2023-05-17T14:17:56;19.30;81.80
8095;DHT22;4090;49.270;8.696;2023-05-17T14:20:37;19.30;80.10
8095;DHT22;4090;49.270;8.696;2023-05-17T14:23:19;19.30;78.60
8095;DHT22;4090;49.270;8.696;2023-05-17T14:26:01;19.40;79.60
8095;DHT22;4090;49.270;8.696;2023-05-17T14:28:47;19.50;78.00
8095;DHT22;4090;49.270;8.696;2023-05-17T14:31:29;19.50;78.50
8095;DHT22;4090;49.270;8.696;2023-05-17T14:34:11;19.50;78.50
8095;DHT22;4090;49.270;8.696;2023-05-17T14:36:53;19.60;77.80
8095;DHT22;4090;49.270;8.696;2023-05-17T14:39:35;19.60;75.80
8095;DHT22;4090;49.270;8.696;2023-05-17T14:42:17;19.60;76.30
8095;DHT22;4090;49.270;8.696;2023-05-17T14:45:00;19.50;78.00
8095;DHT22;4090;49.270;8.696;2023-05-17T14:47:42;19.50;77.60
8095;DHT22;4090;49.270;8.696;2023-05-17T14:50:23;19.50;74.00
8095;DHT22;4090;49.270;8.696;2023-05-17T14:53:05;19.50;76.90
8095;DHT22;4090;49.270;8.696;2023-05-17T14:55:47;19.50;77.40
8095;DHT22;4090;49.270;8.696;2023-05-17T14:58:29;19.60;75.50
8095;DHT22;4090;49.270;8.696;2023-05-17T15:01:12;19.60;76.50
8095;DHT22;4090;49.270;8.696;2023-05-17T15:03:54;19.60;76.60
8095;DHT22;4090;49.270;8.696;2023-05-17T15:06:36;19.60;79.30
8095;DHT22;4090;49.270;8.696;2023-05-17T15:09:18;19.70;81.00
8095;DHT22;4090;49.270;8.696;2023-05-17T15:12:02;19.70;77.70
8095;DHT22;4090;49.270;8.696;2023-05-17T15:14:44;19.70;76.50
8095;DHT22;4090;49.270;8.696;2023-05-17T15:17:28;19.80;76.80
8095;DHT22;4090;49.270;8.696;2023-05-17T15:20:10;19.90;75.90
8095;DHT22;4090;49.270;8.696;2023-05-17T15:22:52;20.00;75.90
8095;DHT22;4090;49.270;8.696;2023-05-17T15:25:34;20.10;77.50
8095;DHT22;4090;49.270;8.696;2023-05-17T15:28:16;20.10;78.20
8095;DHT22;4090;49.270;8.696;2023-05-17T15:31:00;20.20;78.40
8095;DHT22;4090;49.270;8.696;2023-05-17T15:33:43;20.20;75.10
8095;DHT22;4090;49.270;8.696;2023-05-17T15:36:25;20.20;73.80
8095;DHT22;4090;49.270;8.696;2023-05-17T15:39:07;20.20;72.60
8095;DHT22;4090;49.270;8.696;2023-05-17T15:41:50;20.20;76.70
8095;DHT22;4090;49.270;8.696;2023-05-17T15:44:32;20.20;75.80
8095;DHT22;4090;49.270;8.696;2023-05-17T15:47:13;20.20;73.20
8095;DHT22;4090;49.270;8.696;2023-05-17T15:49:57;20.20;76.90
8095;DHT22;4090;49.270;8.696;2023-05-17T15:52:38;20.20;75.90
8095;DHT22;4090;49.270;8.696;2023-05-17T15:55:20;20.20;76.20
8095;DHT22;4090;49.270;8.696;2023-05-17T15:58:02;20.20;76.30
8095;DHT22;4090;49.270;8.696;2023-05-17T16:00:47;20.20;76.00
8095;DHT22;4090;49.270;8.696;2023-05-17T16:03:29;20.20;75.00
8095;DHT22;4090;49.270;8.696;2023-05-17T16:06:12;20.20;75.60
8095;DHT22;4090;49.270;8.696;2023-05-17T16:08:54;20.20;75.40
8095;DHT22;4090;49.270;8.696;2023-05-17T16:11:36;20.20;75.60
8095;DHT22;4090;49.270;8.696;2023-05-17T16:14:18;20.20;75.80
8095;DHT22;4090;49.270;8.696;2023-05-17T16:17:00;20.20;75.20
8095;DHT22;4090;49.270;8.696;2023-05-17T16:19:42;20.20;74.50
8095;DHT22;4090;49.270;8.696;2023-05-17T16:22:25;20.40;73.90
8095;DHT22;4090;49.270;8.696;2023-05-17T16:25:07;20.20;75.40
8095;DHT22;4090;49.270;8.696;2023-05-17T16:27:49;20.20;75.20
8095;DHT22;4090;49.270;8.696;2023-05-17T16:30:31;20.20;74.30
8095;DHT22;4090;49.270;8.696;2023-05-17T16:33:12;20.20;76.40
8095;DHT22;4090;49.270;8.696;2023-05-17T16:35:56;20.10;75.60
8095;DHT22;4090;49.270;8.696;2023-05-17T16:38:39;20.10;76.30
8095;DHT22;4090;49.270;8.696;2023-05-17T16:41:20;20.10;76.60
8095;DHT22;4090;49.270;8.696;2023-05-17T16:44:02;20.00;75.90
8095;DHT22;4090;49.270;8.696;2023-05-17T16:46:44;20.00;74.10
8095;DHT22;4090;49.270;8.696;2023-05-17T16:49:26;19.90;76.10
8095;DHT22;4090;49.270;8.696;2023-05-17T16:52:09;19.90;76.00
8095;DHT22;4090;49.270;8.696;2023-05-17T16:54:52;19.80;78.40
8095;DHT22;4090;49.270;8.696;2023-05-17T16:57:40;19.80;79.60
8095;DHT22;4090;49.270;8.696;2023-05-17T17:00:23;19.80;79.60
8095;DHT22;4090;49.270;8.696;2023-05-17T17:03:04;19.80;79.90
8095;DHT22;4090;49.270;8.696;2023-05-17T17:05:46;19.80;79.00
8095;DHT22;4090;49.270;8.696;2023-05-17T17:08:28;19.80;75.00
8095;DHT22;4090;49.270;8.696;2023-05-17T17:11:11;19.80;76.00
8095;DHT22;4090;49.270;8.696;2023-05-17T17:13:53;19.80;73.80
8095;DHT22;4090;49.270;8.696;2023-05-17T17:16:35;19.90;74.20
8095;DHT22;4090;49.270;8.696;2023-05-17T17:19:17;19.90;74.60
8095;DHT22;4090;49.270;8.696;2023-05-17T17:21:59;19.90;76.80
8095;DHT22;4090;49.270;8.696;2023-05-17T17:24:40;19.80;76.40
8095;DHT22;4090;49.270;8.696;2023-05-17T17:27:24;19.80;77.70
8095;DHT22;4090;49.270;8.696;2023-05-17T17:30:06;19.80;79.60
8095;DHT22;4090;49.270;8.696;2023-05-17T17:32:48;19.70;79.60
8095;DHT22;4090;49.270;8.696;2023-05-17T17:35:30;19.70;79.00
8095;DHT22;4090;49.270;8.696;2023-05-17T17:38:12;19.60;79.20
8095;DHT22;4090;49.270;8.696;2023-05-17T17:40:53;19.60;78.50
8095;DHT22;4090;49.270;8.696;2023-05-17T17:43:36;19.60;77.40